createdAt,value
2022-09-23T00:04:38.626Z,0.82
2022-09-23T00:10:51.799Z,1.05
2022-09-23T00:17:05.421Z,0.65
2022-09-23T00:23:14.702Z,0.55
2022-09-23T00:29:27.826Z,0.40
2022-09-23T00:35:39.269Z,2.58
2022-09-23T00:41:50.020Z,0.60
2022-09-23T00:47:59.474Z,5.37
2022-09-23T00:54:10.477Z,0.40
2022-09-23T01:00:23.858Z,0.72
2022-09-23T01:06:35.854Z,0.68
2022-09-23T01:12:52.440Z,1.25
2022-09-23T01:19:05.691Z,0.53
2022-09-23T01:32:15.210Z,5.00
2022-09-23T01:38:34.770Z,0.60
2022-09-23T01:44:49.947Z,0.45
2022-09-23T01:51:06.407Z,0.45
2022-09-23T01:57:19.445Z,0.50
2022-09-23T02:03:31.819Z,0.60
2022-09-23T02:09:45.333Z,0.82
2022-09-23T02:15:58.394Z,0.68
2022-09-23T02:22:11.482Z,0.55
2022-09-23T02:28:22.532Z,0.60
2022-09-23T02:34:41.468Z,0.57
2022-09-23T02:40:56.717Z,10.65
2022-09-23T02:47:10.972Z,0.53
2022-09-23T02:53:23.373Z,0.60
2022-09-23T02:59:34.131Z,0.90
2022-09-23T03:05:47.003Z,0.50
2022-09-23T03:12:03.507Z,0.78
2022-09-23T03:24:26.342Z,1.32
2022-09-23T03:30:39.764Z,1.47
2022-09-23T03:36:54.459Z,0.70
2022-09-23T03:43:06.782Z,0.40
2022-09-23T03:49:22.226Z,0.50
2022-09-23T03:55:33.561Z,0.60
2022-09-23T04:01:44.444Z,0.75
2022-09-23T04:07:57.622Z,1.35
2022-09-23T04:14:10.360Z,0.50
2022-09-23T04:20:19.645Z,0.47
2022-09-23T04:26:28.504Z,0.60
2022-09-23T04:32:38.901Z,0.40
2022-09-23T04:38:51.798Z,0.50
2022-09-23T04:45:03.918Z,0.60
2022-09-23T04:51:17.924Z,0.40
2022-09-23T04:57:30.514Z,0.53
2022-09-23T05:03:43.425Z,0.42
2022-09-23T05:09:57.536Z,0.55
2022-09-23T05:16:09.280Z,0.50
2022-09-23T05:22:23.151Z,0.57
2022-09-23T05:28:34.665Z,0.40
2022-09-23T05:41:05.276Z,0.67
2022-09-23T05:47:16.658Z,0.68
2022-09-23T05:53:28.781Z,0.72
2022-09-23T05:59:41.554Z,0.30
2022-09-23T06:05:51.665Z,0.40
2022-09-23T06:12:03.761Z,0.47
2022-09-23T06:18:15.309Z,1.55
2022-09-23T06:24:31.282Z,0.50
2022-09-23T06:30:40.026Z,1.00
2022-09-23T06:36:51.712Z,0.42
2022-09-23T06:43:07.438Z,0.37
2022-09-23T06:49:18.124Z,0.40
2022-09-23T06:55:29.138Z,2.00
2022-09-23T07:01:42.070Z,0.40
2022-09-23T07:07:53.849Z,0.82
2022-09-23T07:14:05.575Z,0.33
2022-09-23T07:20:19.319Z,1.20
2022-09-23T07:26:31.201Z,0.40
2022-09-23T07:32:48.578Z,0.50
2022-09-23T07:38:55.015Z,0.68
2022-09-23T07:45:06.870Z,0.50
2022-09-23T07:51:20.857Z,0.30
2022-09-23T07:57:31.691Z,0.60
2022-09-23T08:03:43.302Z,0.50
2022-09-23T08:09:57.427Z,0.72
2022-09-23T08:16:08.466Z,0.40
2022-09-23T08:22:23.163Z,0.60
2022-09-23T08:28:34.405Z,0.90
2022-09-23T08:34:45.446Z,0.42
2022-09-23T08:40:56.468Z,0.33
2022-09-23T08:53:53.102Z,0.40
2022-09-23T09:00:07.781Z,0.40
2022-09-23T09:06:21.017Z,0.40
2022-09-23T09:12:36.814Z,0.47
2022-09-23T09:18:51.525Z,0.37
2022-09-23T09:25:03.670Z,0.40
2022-09-23T09:31:24.207Z,0.30
2022-09-23T09:37:38.998Z,0.33
2022-09-23T09:43:51.682Z,0.53
2022-09-23T09:50:06.085Z,0.55
2022-09-23T09:56:17.817Z,0.45
2022-09-23T10:02:34.360Z,0.50
2022-09-23T10:08:48.699Z,0.55
2022-09-23T10:15:03.583Z,0.30
2022-09-23T10:21:20.095Z,0.50
2022-09-23T10:27:36.987Z,0.40
2022-09-23T10:33:53.110Z,0.50
2022-09-23T10:40:20.998Z,0.45
2022-09-23T10:46:43.870Z,0.40
2022-09-23T10:53:06.455Z,0.30
2022-09-23T11:06:24.403Z,0.47
2022-09-23T11:12:42.006Z,0.42
2022-09-23T11:19:01.970Z,0.50
2022-09-23T11:25:26.450Z,0.75
2022-09-23T11:31:45.592Z,0.40
2022-09-23T11:37:59.736Z,0.40
2022-09-23T11:44:14.260Z,0.82
2022-09-23T11:50:30.307Z,0.40
2022-09-23T11:56:45.518Z,0.50
2022-09-23T12:03:05.721Z,0.53
2022-09-23T12:09:15.151Z,0.50
2022-09-23T12:15:31.483Z,0.40
2022-09-23T12:22:08.075Z,0.40
2022-09-23T12:28:22.643Z,0.40
2022-09-23T12:34:34.129Z,0.45
2022-09-23T12:40:48.874Z,0.60
2022-09-23T12:47:21.960Z,0.60
2022-09-23T12:54:28.148Z,0.45
2022-09-23T13:00:41.655Z,1.00
2022-09-23T13:06:53.849Z,0.65
2022-09-23T13:13:06.786Z,0.60
2022-09-23T13:19:38.668Z,0.30
2022-09-23T13:25:48.337Z,0.70
2022-09-23T13:31:58.451Z,2.05
2022-09-23T13:38:24.450Z,0.75
2022-09-23T13:44:36.965Z,0.40
2022-09-23T13:50:51.112Z,1.12
2022-09-23T13:57:01.216Z,0.80
2022-09-23T14:03:26.847Z,0.60
2022-09-23T14:09:38.668Z,0.88
2022-09-23T14:15:49.300Z,0.60
2022-09-23T14:22:02.907Z,2.17
2022-09-23T14:28:18.079Z,0.50
2022-09-23T14:35:07.794Z,0.80
2022-09-23T14:41:28.209Z,0.40
2022-09-23T14:47:41.025Z,0.75
2022-09-23T14:53:54.374Z,1.95
2022-09-23T15:00:11.548Z,0.98
2022-09-23T15:06:26.291Z,0.68
2022-09-23T15:12:38.742Z,0.60
2022-09-23T15:18:52.656Z,0.40
2022-09-23T15:25:16.069Z,0.40
2022-09-23T15:31:29.504Z,0.40
2022-09-23T15:37:40.938Z,0.88
2022-09-23T15:43:53.437Z,0.72
2022-09-23T15:50:05.036Z,2.20
2022-09-23T15:56:16.153Z,0.37
2022-09-23T16:02:28.084Z,0.90
2022-09-23T16:08:43.608Z,1.07
2022-09-23T16:14:54.391Z,0.80
2022-09-23T16:21:08.894Z,1.25
2022-09-23T16:27:23.064Z,3.05
2022-09-23T16:33:35.409Z,3.17
2022-09-23T16:39:47.939Z,3.27
2022-09-23T16:45:59.159Z,2.83
2022-09-23T16:52:14.203Z,5.92
2022-09-23T16:58:28.226Z,3.62
2022-09-23T17:04:39.198Z,3.40
2022-09-23T17:10:53.339Z,3.87
2022-09-23T17:17:07.383Z,2.85
2022-09-23T17:23:21.895Z,3.40
2022-09-23T17:29:32.899Z,2.92
2022-09-23T17:35:45.970Z,2.95
2022-09-23T17:42:00.791Z,1.32
2022-09-23T17:48:14.886Z,0.93
2022-09-23T17:54:28.976Z,1.22
2022-09-23T18:00:41.418Z,1.52
2022-09-23T18:06:54.224Z,0.88
2022-09-23T18:13:04.542Z,1.98
2022-09-23T18:19:20.970Z,0.68
2022-09-23T18:25:40.065Z,1.30
2022-09-23T18:31:45.934Z,0.85
2022-09-23T18:37:58.438Z,1.35
2022-09-23T18:44:10.651Z,1.35
2022-09-23T18:50:37.454Z,0.98
2022-09-23T18:56:52.293Z,1.95
2022-09-23T19:03:03.825Z,1.25
2022-09-23T19:09:14.378Z,1.80
2022-09-23T19:15:25.623Z,1.27
2022-09-23T19:21:40.770Z,5.15
2022-09-23T19:27:52.608Z,0.47
2022-09-23T19:34:08.391Z,8.00
2022-09-23T19:40:22.644Z,0.90
2022-09-23T19:46:34.747Z,0.70
2022-09-23T19:52:47.639Z,1.05
2022-09-23T19:59:00.620Z,2.55
2022-09-23T20:05:19.691Z,0.72
2022-09-23T20:11:28.709Z,3.95
2022-09-23T20:17:42.405Z,0.68
2022-09-23T20:23:56.732Z,0.65
2022-09-23T20:30:10.307Z,1.40
2022-09-23T20:36:23.675Z,0.80
2022-09-23T20:42:37.611Z,0.47
2022-09-23T20:48:48.006Z,0.40
2022-09-23T20:54:58.029Z,1.27
2022-09-23T21:01:11.114Z,0.57
2022-09-23T21:07:23.545Z,0.70
2022-09-23T21:13:36.855Z,0.42
2022-09-23T21:19:49.892Z,2.45
2022-09-23T21:26:04.830Z,1.17
2022-09-23T21:32:19.034Z,33.02
2022-09-23T21:38:30.117Z,60.45
2022-09-23T21:44:43.400Z,61.45
2022-09-23T21:51:05.937Z,56.88
2022-09-23T21:57:19.232Z,52.88
2022-09-23T22:03:30.714Z,51.88
2022-09-23T22:09:42.098Z,52.90
2022-09-23T22:15:58.223Z,36.65
2022-09-23T22:22:13.960Z,37.83
2022-09-23T22:28:40.621Z,43.92
2022-09-23T22:34:55.522Z,28.15
2022-09-23T22:41:09.926Z,31.52
2022-09-23T22:47:21.856Z,22.93
2022-09-23T22:53:35.382Z,26.60
2022-09-23T22:59:48.914Z,27.87
2022-09-23T23:05:57.781Z,18.82
2022-09-23T23:12:09.425Z,21.75
2022-09-23T23:18:20.339Z,20.35
2022-09-23T23:24:29.737Z,21.85
2022-09-23T23:30:42.868Z,11.80
2022-09-23T23:36:55.420Z,11.43
2022-09-23T23:43:08.059Z,18.32
2022-09-23T23:49:18.825Z,19.42
2022-09-23T23:55:26.579Z,13.25
